sensor_id;sensor_type;location;lat;lon;timestamp;P1;durP1;ratioP1;P2;durP2;ratioP2
72037;SDS011;59900;50.788;12.904;2023-04-16T00:00:35;27.60;;;12.80;;
72037;SDS011;59900;50.788;12.904;2023-04-16T00:03:00;26.30;;;13.13;;
72037;SDS011;59900;50.788;12.904;2023-04-16T00:05:26;26.43;;;12.83;;
72037;SDS011;59900;50.788;12.904;2023-04-16T00:07:51;26.00;;;12.60;;
72037;SDS011;59900;50.788;12.904;2023-04-16T00:10:16;24.53;;;12.23;;
72037;SDS011;59900;50.788;12.904;2023-04-16T00:12:42;26.37;;;13.83;;
72037;SDS011;59900;50.788;12.904;2023-04-16T00:15:07;25.63;;;13.43;;
72037;SDS011;59900;50.788;12.904;2023-04-16T00:17:32;27.50;;;14.27;;
72037;SDS011;59900;50.788;12.904;2023-04-16T00:19:58;28.97;;;14.07;;
72037;SDS011;59900;50.788;12.904;2023-04-16T00:22:23;31.40;;;14.13;;
72037;SDS011;59900;50.788;12.904;2023-04-16T00:24:49;28.80;;;13.97;;
72037;SDS011;59900;50.788;12.904;2023-04-16T00:27:15;28.02;;;13.90;;
72037;SDS011;59900;50.788;12.904;2023-04-16T00:29:40;28.70;;;14.27;;
72037;SDS011;59900;50.788;12.904;2023-04-16T00:32:05;27.77;;;13.67;;
72037;SDS011;59900;50.788;12.904;2023-04-16T00:34:31;26.17;;;12.97;;
72037;SDS011;59900;50.788;12.904;2023-04-16T00:36:56;25.57;;;13.57;;
72037;SDS011;59900;50.788;12.904;2023-04-16T00:39:22;27.03;;;13.93;;
72037;SDS011;59900;50.788;12.904;2023-04-16T00:41:47;27.67;;;14.17;;
72037;SDS011;59900;50.788;12.904;2023-04-16T00:44:13;26.97;;;13.43;;
72037;SDS011;59900;50.788;12.904;2023-04-16T00:46:38;26.60;;;13.67;;
72037;SDS011;59900;50.788;12.904;2023-04-16T00:49:05;26.30;;;13.55;;
72037;SDS011;59900;50.788;12.904;2023-04-16T00:51:31;26.17;;;13.10;;
72037;SDS011;59900;50.788;12.904;2023-04-16T00:53:56;28.17;;;14.40;;
72037;SDS011;59900;50.788;12.904;2023-04-16T00:56:22;28.83;;;14.40;;
72037;SDS011;59900;50.788;12.904;2023-04-16T00:58:48;26.67;;;13.88;;
72037;SDS011;59900;50.788;12.904;2023-04-16T01:01:14;28.17;;;13.77;;
72037;SDS011;59900;50.788;12.904;2023-04-16T01:03:42;26.60;;;13.63;;
72037;SDS011;59900;50.788;12.904;2023-04-16T01:06:09;28.23;;;14.23;;
72037;SDS011;59900;50.788;12.904;2023-04-16T01:08:35;26.67;;;13.83;;
72037;SDS011;59900;50.788;12.904;2023-04-16T01:11:00;26.65;;;13.75;;
72037;SDS011;59900;50.788;12.904;2023-04-16T01:13:26;27.70;;;13.23;;
72037;SDS011;59900;50.788;12.904;2023-04-16T01:15:51;25.50;;;13.40;;
72037;SDS011;59900;50.788;12.904;2023-04-16T01:18:17;22.40;;;12.40;;
72037;SDS011;59900;50.788;12.904;2023-04-16T01:20:44;24.93;;;12.67;;
72037;SDS011;59900;50.788;12.904;2023-04-16T01:23:10;24.38;;;12.50;;
72037;SDS011;59900;50.788;12.904;2023-04-16T01:25:36;25.87;;;12.63;;
72037;SDS011;59900;50.788;12.904;2023-04-16T01:28:01;26.17;;;12.82;;
72037;SDS011;59900;50.788;12.904;2023-04-16T01:30:27;27.03;;;13.17;;
72037;SDS011;59900;50.788;12.904;2023-04-16T01:32:52;26.07;;;12.70;;
72037;SDS011;59900;50.788;12.904;2023-04-16T01:35:17;24.27;;;12.70;;
72037;SDS011;59900;50.788;12.904;2023-04-16T01:37:43;27.37;;;12.83;;
72037;SDS011;59900;50.788;12.904;2023-04-16T01:40:08;26.20;;;12.27;;
72037;SDS011;59900;50.788;12.904;2023-04-16T01:42:34;27.03;;;12.50;;
72037;SDS011;59900;50.788;12.904;2023-04-16T01:44:59;23.53;;;12.07;;
72037;SDS011;59900;50.788;12.904;2023-04-16T01:47:24;26.03;;;12.63;;
72037;SDS011;59900;50.788;12.904;2023-04-16T01:49:50;26.63;;;12.35;;
72037;SDS011;59900;50.788;12.904;2023-04-16T01:52:15;24.57;;;13.13;;
72037;SDS011;59900;50.788;12.904;2023-04-16T01:54:40;25.23;;;11.53;;
72037;SDS011;59900;50.788;12.904;2023-04-16T01:57:06;24.87;;;11.43;;
72037;SDS011;59900;50.788;12.904;2023-04-16T01:59:31;25.83;;;12.80;;
72037;SDS011;59900;50.788;12.904;2023-04-16T02:01:58;24.57;;;11.57;;
72037;SDS011;59900;50.788;12.904;2023-04-16T02:04:30;24.17;;;11.90;;
72037;SDS011;59900;50.788;12.904;2023-04-16T02:06:56;25.07;;;12.80;;
72037;SDS011;59900;50.788;12.904;2023-04-16T02:09:21;25.67;;;11.90;;
72037;SDS011;59900;50.788;12.904;2023-04-16T02:11:46;24.57;;;11.53;;
72037;SDS011;59900;50.788;12.904;2023-04-16T02:14:11;25.90;;;12.73;;
72037;SDS011;59900;50.788;12.904;2023-04-16T02:16:37;22.03;;;11.37;;
72037;SDS011;59900;50.788;12.904;2023-04-16T02:19:02;23.87;;;11.83;;
72037;SDS011;59900;50.788;12.904;2023-04-16T02:21:28;25.17;;;11.05;;
72037;SDS011;59900;50.788;12.904;2023-04-16T02:23:53;24.23;;;12.13;;
72037;SDS011;59900;50.788;12.904;2023-04-16T02:26:18;23.13;;;11.87;;
72037;SDS011;59900;50.788;12.904;2023-04-16T02:28:44;22.43;;;11.23;;
72037;SDS011;59900;50.788;12.904;2023-04-16T02:31:09;22.60;;;11.93;;
72037;SDS011;59900;50.788;12.904;2023-04-16T02:33:34;26.53;;;11.90;;
72037;SDS011;59900;50.788;12.904;2023-04-16T02:36:00;23.83;;;11.80;;
72037;SDS011;59900;50.788;12.904;2023-04-16T02:38:25;23.13;;;11.70;;
72037;SDS011;59900;50.788;12.904;2023-04-16T02:40:50;22.03;;;11.10;;
72037;SDS011;59900;50.788;12.904;2023-04-16T02:43:16;25.03;;;12.50;;
72037;SDS011;59900;50.788;12.904;2023-04-16T02:45:41;22.43;;;11.40;;
72037;SDS011;59900;50.788;12.904;2023-04-16T02:48:06;23.23;;;11.60;;
72037;SDS011;59900;50.788;12.904;2023-04-16T02:50:33;23.43;;;10.87;;
72037;SDS011;59900;50.788;12.904;2023-04-16T02:52:58;23.37;;;11.83;;
72037;SDS011;59900;50.788;12.904;2023-04-16T02:55:24;21.97;;;11.03;;
72037;SDS011;59900;50.788;12.904;2023-04-16T02:57:49;25.50;;;11.40;;
72037;SDS011;59900;50.788;12.904;2023-04-16T03:00:14;21.63;;;11.20;;
72037;SDS011;59900;50.788;12.904;2023-04-16T03:02:39;23.10;;;12.43;;
72037;SDS011;59900;50.788;12.904;2023-04-16T03:05:05;26.20;;;11.77;;
72037;SDS011;59900;50.788;12.904;2023-04-16T03:07:30;21.00;;;11.63;;
72037;SDS011;59900;50.788;12.904;2023-04-16T03:09:56;22.73;;;11.20;;
72037;SDS011;59900;50.788;12.904;2023-04-16T03:12:21;22.33;;;11.63;;
72037;SDS011;59900;50.788;12.904;2023-04-16T03:14:46;26.23;;;12.17;;
72037;SDS011;59900;50.788;12.904;2023-04-16T03:17:11;25.40;;;11.90;;
72037;SDS011;59900;50.788;12.904;2023-04-16T03:19:37;25.33;;;12.17;;
72037;SDS011;59900;50.788;12.904;2023-04-16T03:22:03;24.57;;;11.77;;
72037;SDS011;59900;50.788;12.904;2023-04-16T03:24:28;24.98;;;11.90;;
72037;SDS011;59900;50.788;12.904;2023-04-16T03:26:53;25.83;;;12.37;;
72037;SDS011;59900;50.788;12.904;2023-04-16T03:29:21;22.13;;;11.25;;
72037;SDS011;59900;50.788;12.904;2023-04-16T03:31:46;22.93;;;10.67;;
72037;SDS011;59900;50.788;12.904;2023-04-16T03:34:12;24.23;;;11.23;;
72037;SDS011;59900;50.788;12.904;2023-04-16T03:36:37;23.23;;;11.07;;
72037;SDS011;59900;50.788;12.904;2023-04-16T03:39:02;20.77;;;10.70;;
72037;SDS011;59900;50.788;12.904;2023-04-16T03:41:27;21.80;;;10.93;;
72037;SDS011;59900;50.788;12.904;2023-04-16T03:43:53;22.40;;;11.60;;
72037;SDS011;59900;50.788;12.904;2023-04-16T03:46:18;23.93;;;11.73;;
72037;SDS011;59900;50.788;12.904;2023-04-16T03:48:43;22.57;;;11.07;;
72037;SDS011;59900;50.788;12.904;2023-04-16T03:51:08;21.83;;;11.40;;
72037;SDS011;59900;50.788;12.904;2023-04-16T03:53:33;20.20;;;11.03;;
72037;SDS011;59900;50.788;12.904;2023-04-16T03:55:59;20.77;;;10.57;;
72037;SDS011;59900;50.788;12.904;2023-04-16T03:58:24;20.07;;;10.97;;
72037;SDS011;59900;50.788;12.904;2023-04-16T04:00:51;22.17;;;11.83;;
72037;SDS011;59900;50.788;12.904;2023-04-16T04:03:17;18.25;;;10.23;;
72037;SDS011;59900;50.788;12.904;2023-04-16T04:05:42;19.10;;;10.40;;
72037;SDS011;59900;50.788;12.904;2023-04-16T04:08:08;20.57;;;10.67;;
72037;SDS011;59900;50.788;12.904;2023-04-16T04:10:33;19.60;;;10.10;;
72037;SDS011;59900;50.788;12.904;2023-04-16T04:13:03;20.80;;;10.50;;
72037;SDS011;59900;50.788;12.904;2023-04-16T04:15:29;19.27;;;9.52;;
72037;SDS011;59900;50.788;12.904;2023-04-16T04:17:55;21.13;;;10.60;;
72037;SDS011;59900;50.788;12.904;2023-04-16T04:20:20;19.43;;;10.10;;
72037;SDS011;59900;50.788;12.904;2023-04-16T04:22:46;20.10;;;10.48;;
72037;SDS011;59900;50.788;12.904;2023-04-16T04:25:11;20.67;;;9.73;;
72037;SDS011;59900;50.788;12.904;2023-04-16T04:27:37;19.17;;;10.20;;
72037;SDS011;59900;50.788;12.904;2023-04-16T04:30:02;20.83;;;10.60;;
72037;SDS011;59900;50.788;12.904;2023-04-16T04:32:28;20.52;;;10.35;;
72037;SDS011;59900;50.788;12.904;2023-04-16T04:34:54;19.20;;;9.97;;
72037;SDS011;59900;50.788;12.904;2023-04-16T04:37:19;20.75;;;10.02;;
72037;SDS011;59900;50.788;12.904;2023-04-16T04:39:45;18.07;;;9.37;;
72037;SDS011;59900;50.788;12.904;2023-04-16T04:42:10;16.60;;;9.50;;
72037;SDS011;59900;50.788;12.904;2023-04-16T04:44:35;21.57;;;9.90;;
72037;SDS011;59900;50.788;12.904;2023-04-16T04:47:01;20.33;;;10.10;;
72037;SDS011;59900;50.788;12.904;2023-04-16T04:49:26;19.77;;;10.27;;
72037;SDS011;59900;50.788;12.904;2023-04-16T04:51:51;18.13;;;9.63;;
72037;SDS011;59900;50.788;12.904;2023-04-16T04:54:16;20.93;;;10.30;;
72037;SDS011;59900;50.788;12.904;2023-04-16T04:56:42;20.37;;;10.20;;
72037;SDS011;59900;50.788;12.904;2023-04-16T04:59:09;19.45;;;10.32;;
72037;SDS011;59900;50.788;12.904;2023-04-16T05:01:35;18.65;;;9.98;;
72037;SDS011;59900;50.788;12.904;2023-04-16T05:04:00;17.17;;;9.20;;
72037;SDS011;59900;50.788;12.904;2023-04-16T05:06:26;18.63;;;9.30;;
72037;SDS011;59900;50.788;12.904;2023-04-16T05:08:51;18.47;;;9.20;;
72037;SDS011;59900;50.788;12.904;2023-04-16T05:11:16;19.07;;;9.57;;
72037;SDS011;59900;50.788;12.904;2023-04-16T05:13:41;17.83;;;9.40;;
72037;SDS011;59900;50.788;12.904;2023-04-16T05:16:06;22.73;;;10.47;;
72037;SDS011;59900;50.788;12.904;2023-04-16T05:18:32;20.43;;;9.67;;
72037;SDS011;59900;50.788;12.904;2023-04-16T05:20:57;20.83;;;10.43;;
72037;SDS011;59900;50.788;12.904;2023-04-16T05:23:22;17.70;;;9.30;;
72037;SDS011;59900;50.788;12.904;2023-04-16T05:25:47;19.20;;;9.77;;
72037;SDS011;59900;50.788;12.904;2023-04-16T05:28:13;17.73;;;9.43;;
72037;SDS011;59900;50.788;12.904;2023-04-16T05:30:39;16.13;;;8.88;;
72037;SDS011;59900;50.788;12.904;2023-04-16T05:33:04;17.17;;;9.37;;
72037;SDS011;59900;50.788;12.904;2023-04-16T05:35:30;18.23;;;9.13;;
72037;SDS011;59900;50.788;12.904;2023-04-16T05:37:55;16.67;;;9.03;;
72037;SDS011;59900;50.788;12.904;2023-04-16T05:40:20;18.23;;;9.57;;
72037;SDS011;59900;50.788;12.904;2023-04-16T05:42:45;20.37;;;9.40;;
72037;SDS011;59900;50.788;12.904;2023-04-16T05:45:11;17.63;;;9.60;;
72037;SDS011;59900;50.788;12.904;2023-04-16T05:47:36;17.37;;;9.53;;
72037;SDS011;59900;50.788;12.904;2023-04-16T05:50:01;16.93;;;9.30;;
72037;SDS011;59900;50.788;12.904;2023-04-16T05:52:26;17.90;;;9.20;;
72037;SDS011;59900;50.788;12.904;2023-04-16T05:54:52;18.70;;;9.30;;
72037;SDS011;59900;50.788;12.904;2023-04-16T05:57:17;16.70;;;8.70;;
72037;SDS011;59900;50.788;12.904;2023-04-16T05:59:42;19.87;;;10.50;;
72037;SDS011;59900;50.788;12.904;2023-04-16T06:02:07;19.23;;;10.80;;
72037;SDS011;59900;50.788;12.904;2023-04-16T06:04:33;17.77;;;9.83;;
72037;SDS011;59900;50.788;12.904;2023-04-16T06:06:59;16.63;;;9.07;;
72037;SDS011;59900;50.788;12.904;2023-04-16T06:09:25;15.77;;;9.17;;
72037;SDS011;59900;50.788;12.904;2023-04-16T06:11:50;16.23;;;8.10;;
72037;SDS011;59900;50.788;12.904;2023-04-16T06:14:15;16.10;;;9.20;;
72037;SDS011;59900;50.788;12.904;2023-04-16T06:16:40;16.80;;;9.20;;
72037;SDS011;59900;50.788;12.904;2023-04-16T06:19:06;17.43;;;9.30;;
72037;SDS011;59900;50.788;12.904;2023-04-16T06:21:31;17.57;;;9.13;;
72037;SDS011;59900;50.788;12.904;2023-04-16T06:23:57;16.15;;;8.43;;
72037;SDS011;59900;50.788;12.904;2023-04-16T06:26:22;27.10;;;12.13;;
72037;SDS011;59900;50.788;12.904;2023-04-16T06:28:47;18.97;;;9.20;;
72037;SDS011;59900;50.788;12.904;2023-04-16T06:31:13;17.08;;;9.93;;
72037;SDS011;59900;50.788;12.904;2023-04-16T06:33:38;18.03;;;9.87;;
72037;SDS011;59900;50.788;12.904;2023-04-16T06:36:04;18.97;;;9.20;;
72037;SDS011;59900;50.788;12.904;2023-04-16T06:38:29;16.42;;;9.05;;
72037;SDS011;59900;50.788;12.904;2023-04-16T06:40:55;15.20;;;8.43;;
72037;SDS011;59900;50.788;12.904;2023-04-16T06:43:20;15.60;;;8.87;;
72037;SDS011;59900;50.788;12.904;2023-04-16T06:45:46;17.23;;;9.60;;
72037;SDS011;59900;50.788;12.904;2023-04-16T06:48:11;16.67;;;9.10;;
72037;SDS011;59900;50.788;12.904;2023-04-16T06:50:36;17.00;;;9.03;;
72037;SDS011;59900;50.788;12.904;2023-04-16T06:53:01;18.57;;;9.83;;
72037;SDS011;59900;50.788;12.904;2023-04-16T06:55:27;17.85;;;9.02;;
72037;SDS011;59900;50.788;12.904;2023-04-16T06:57:52;18.93;;;9.67;;
72037;SDS011;59900;50.788;12.904;2023-04-16T07:00:18;18.23;;;9.50;;
72037;SDS011;59900;50.788;12.904;2023-04-16T07:02:43;19.10;;;9.47;;
72037;SDS011;59900;50.788;12.904;2023-04-16T07:05:08;20.27;;;10.27;;
72037;SDS011;59900;50.788;12.904;2023-04-16T07:07:33;18.43;;;9.13;;
72037;SDS011;59900;50.788;12.904;2023-04-16T07:09:59;15.73;;;8.57;;
72037;SDS011;59900;50.788;12.904;2023-04-16T07:12:24;16.73;;;8.37;;
72037;SDS011;59900;50.788;12.904;2023-04-16T07:14:49;16.63;;;8.87;;
72037;SDS011;59900;50.788;12.904;2023-04-16T07:17:15;16.57;;;9.37;;
72037;SDS011;59900;50.788;12.904;2023-04-16T07:19:40;15.23;;;8.57;;
72037;SDS011;59900;50.788;12.904;2023-04-16T07:22:05;18.20;;;9.43;;
72037;SDS011;59900;50.788;12.904;2023-04-16T07:24:30;19.10;;;10.17;;
72037;SDS011;59900;50.788;12.904;2023-04-16T07:26:56;16.93;;;8.33;;
72037;SDS011;59900;50.788;12.904;2023-04-16T07:29:21;18.37;;;8.67;;
72037;SDS011;59900;50.788;12.904;2023-04-16T07:31:47;18.67;;;9.50;;
72037;SDS011;59900;50.788;12.904;2023-04-16T07:34:13;19.15;;;9.57;;
72037;SDS011;59900;50.788;12.904;2023-04-16T07:36:38;17.27;;;9.23;;
72037;SDS011;59900;50.788;12.904;2023-04-16T07:39:03;17.37;;;9.27;;
72037;SDS011;59900;50.788;12.904;2023-04-16T07:41:29;18.77;;;9.80;;
72037;SDS011;59900;50.788;12.904;2023-04-16T07:43:55;17.93;;;9.77;;
72037;SDS011;59900;50.788;12.904;2023-04-16T07:46:20;16.93;;;9.37;;
72037;SDS011;59900;50.788;12.904;2023-04-16T07:48:46;16.53;;;8.93;;
72037;SDS011;59900;50.788;12.904;2023-04-16T07:51:11;17.47;;;9.67;;
72037;SDS011;59900;50.788;12.904;2023-04-16T07:53:36;18.60;;;10.23;;
72037;SDS011;59900;50.788;12.904;2023-04-16T07:56:01;18.13;;;9.57;;
72037;SDS011;59900;50.788;12.904;2023-04-16T07:58:27;19.83;;;10.40;;
72037;SDS011;59900;50.788;12.904;2023-04-16T08:00:52;19.17;;;10.47;;
72037;SDS011;59900;50.788;12.904;2023-04-16T08:03:17;22.20;;;10.67;;
72037;SDS011;59900;50.788;12.904;2023-04-16T08:05:42;22.20;;;11.43;;
72037;SDS011;59900;50.788;12.904;2023-04-16T08:08:08;22.13;;;10.80;;
72037;SDS011;59900;50.788;12.904;2023-04-16T08:10:33;21.63;;;10.70;;
72037;SDS011;59900;50.788;12.904;2023-04-16T08:12:59;21.83;;;11.23;;
72037;SDS011;59900;50.788;12.904;2023-04-16T08:15:25;21.67;;;10.80;;
72037;SDS011;59900;50.788;12.904;2023-04-16T08:17:50;19.23;;;10.37;;
72037;SDS011;59900;50.788;12.904;2023-04-16T08:20:15;21.67;;;10.93;;
72037;SDS011;59900;50.788;12.904;2023-04-16T08:22:41;21.67;;;10.53;;
72037;SDS011;59900;50.788;12.904;2023-04-16T08:25:06;21.87;;;11.30;;
72037;SDS011;59900;50.788;12.904;2023-04-16T08:27:32;20.27;;;9.73;;
72037;SDS011;59900;50.788;12.904;2023-04-16T08:29:57;20.90;;;10.20;;
72037;SDS011;59900;50.788;12.904;2023-04-16T08:32:22;22.10;;;10.20;;
72037;SDS011;59900;50.788;12.904;2023-04-16T08:34:48;19.60;;;10.53;;
72037;SDS011;59900;50.788;12.904;2023-04-16T08:37:13;19.63;;;9.47;;
72037;SDS011;59900;50.788;12.904;2023-04-16T08:39:38;17.13;;;9.27;;
72037;SDS011;59900;50.788;12.904;2023-04-16T08:42:04;17.67;;;8.93;;
72037;SDS011;59900;50.788;12.904;2023-04-16T08:44:34;19.05;;;9.50;;
72037;SDS011;59900;50.788;12.904;2023-04-16T08:47:01;17.40;;;9.45;;
72037;SDS011;59900;50.788;12.904;2023-04-16T08:49:27;47.33;;;24.40;;
72037;SDS011;59900;50.788;12.904;2023-04-16T08:51:53;22.98;;;11.45;;
72037;SDS011;59900;50.788;12.904;2023-04-16T08:57:12;17.58;;;9.30;;
72037;SDS011;59900;50.788;12.904;2023-04-16T08:59:44;16.45;;;8.55;;
72037;SDS011;59900;50.788;12.904;2023-04-16T09:02:10;19.55;;;9.43;;
72037;SDS011;59900;50.788;12.904;2023-04-16T09:04:40;17.35;;;8.38;;
72037;SDS011;59900;50.788;12.904;2023-04-16T09:07:07;14.87;;;8.30;;
72037;SDS011;59900;50.788;12.904;2023-04-16T09:09:32;17.20;;;9.27;;
72037;SDS011;59900;50.788;12.904;2023-04-16T09:11:58;16.75;;;9.25;;
72037;SDS011;59900;50.788;12.904;2023-04-16T09:14:24;19.08;;;9.93;;
72037;SDS011;59900;50.788;12.904;2023-04-16T09:16:50;19.67;;;10.03;;
72037;SDS011;59900;50.788;12.904;2023-04-16T09:19:17;17.88;;;9.00;;
72037;SDS011;59900;50.788;12.904;2023-04-16T09:21:46;15.03;;;8.37;;
72037;SDS011;59900;50.788;12.904;2023-04-16T09:24:15;14.57;;;7.80;;
72037;SDS011;59900;50.788;12.904;2023-04-16T09:26:40;16.98;;;8.70;;
72037;SDS011;59900;50.788;12.904;2023-04-16T09:29:09;17.30;;;9.57;;
72037;SDS011;59900;50.788;12.904;2023-04-16T09:31:34;17.53;;;9.20;;
72037;SDS011;59900;50.788;12.904;2023-04-16T09:34:07;17.50;;;8.27;;
72037;SDS011;59900;50.788;12.904;2023-04-16T09:36:33;16.08;;;8.82;;
72037;SDS011;59900;50.788;12.904;2023-04-16T09:39:00;18.73;;;10.13;;
72037;SDS011;59900;50.788;12.904;2023-04-16T09:41:27;24.75;;;12.40;;
72037;SDS011;59900;50.788;12.904;2023-04-16T09:46:35;19.83;;;9.57;;
72037;SDS011;59900;50.788;12.904;2023-04-16T09:49:14;18.00;;;9.43;;
72037;SDS011;59900;50.788;12.904;2023-04-16T09:51:57;14.17;;;7.03;;
72037;SDS011;59900;50.788;12.904;2023-04-16T09:54:24;13.55;;;7.20;;
72037;SDS011;59900;50.788;12.904;2023-04-16T09:56:50;14.70;;;7.53;;
72037;SDS011;59900;50.788;12.904;2023-04-16T09:59:15;14.73;;;8.13;;
72037;SDS011;59900;50.788;12.904;2023-04-16T10:01:45;14.57;;;8.50;;
72037;SDS011;59900;50.788;12.904;2023-04-16T10:04:10;14.82;;;8.40;;
72037;SDS011;59900;50.788;12.904;2023-04-16T10:06:36;14.97;;;8.13;;
72037;SDS011;59900;50.788;12.904;2023-04-16T10:09:01;14.03;;;7.47;;
72037;SDS011;59900;50.788;12.904;2023-04-16T10:11:31;15.35;;;8.27;;
72037;SDS011;59900;50.788;12.904;2023-04-16T10:13:56;14.83;;;8.20;;
72037;SDS011;59900;50.788;12.904;2023-04-16T10:16:22;13.30;;;7.57;;
72037;SDS011;59900;50.788;12.904;2023-04-16T10:18:48;14.55;;;7.90;;
72037;SDS011;59900;50.788;12.904;2023-04-16T10:21:13;13.17;;;7.63;;
72037;SDS011;59900;50.788;12.904;2023-04-16T10:23:40;15.38;;;8.07;;
72037;SDS011;59900;50.788;12.904;2023-04-16T10:26:07;13.57;;;7.85;;
72037;SDS011;59900;50.788;12.904;2023-04-16T10:28:33;14.07;;;7.50;;
72037;SDS011;59900;50.788;12.904;2023-04-16T10:31:00;13.02;;;6.75;;
72037;SDS011;59900;50.788;12.904;2023-04-16T10:33:28;13.95;;;7.45;;
72037;SDS011;59900;50.788;12.904;2023-04-16T10:36:08;13.65;;;7.22;;
72037;SDS011;59900;50.788;12.904;2023-04-16T10:38:39;12.80;;;7.70;;
72037;SDS011;59900;50.788;12.904;2023-04-16T10:41:05;12.53;;;6.77;;
72037;SDS011;59900;50.788;12.904;2023-04-16T10:43:33;11.20;;;6.80;;
72037;SDS011;59900;50.788;12.904;2023-04-16T10:49:02;13.70;;;6.55;;
72037;SDS011;59900;50.788;12.904;2023-04-16T10:51:57;12.20;;;7.00;;
72037;SDS011;59900;50.788;12.904;2023-04-16T10:54:24;12.60;;;6.47;;
72037;SDS011;59900;50.788;12.904;2023-04-16T10:56:53;11.55;;;6.65;;
72037;SDS011;59900;50.788;12.904;2023-04-16T10:59:21;12.68;;;7.03;;
72037;SDS011;59900;50.788;12.904;2023-04-16T11:01:50;12.15;;;6.88;;
72037;SDS011;59900;50.788;12.904;2023-04-16T11:07:00;13.53;;;7.53;;
72037;SDS011;59900;50.788;12.904;2023-04-16T11:15:12;11.57;;;6.22;;
72037;SDS011;59900;50.788;12.904;2023-04-16T11:17:40;11.60;;;6.47;;
72037;SDS011;59900;50.788;12.904;2023-04-16T11:20:08;11.90;;;6.60;;
72037;SDS011;59900;50.788;12.904;2023-04-16T11:22:55;11.13;;;6.22;;
72037;SDS011;59900;50.788;12.904;2023-04-16T11:25:21;12.20;;;6.07;;
72037;SDS011;59900;50.788;12.904;2023-04-16T11:27:50;10.60;;;6.30;;
72037;SDS011;59900;50.788;12.904;2023-04-16T11:30:17;11.20;;;6.00;;
72037;SDS011;59900;50.788;12.904;2023-04-16T11:32:51;10.50;;;6.17;;
72037;SDS011;59900;50.788;12.904;2023-04-16T11:35:17;10.87;;;6.67;;
72037;SDS011;59900;50.788;12.904;2023-04-16T11:37:43;10.15;;;5.80;;
72037;SDS011;59900;50.788;12.904;2023-04-16T11:40:14;10.32;;;5.68;;
72037;SDS011;59900;50.788;12.904;2023-04-16T11:42:40;10.70;;;6.13;;
72037;SDS011;59900;50.788;12.904;2023-04-16T11:45:06;10.45;;;6.03;;
72037;SDS011;59900;50.788;12.904;2023-04-16T11:47:45;10.48;;;5.97;;
72037;SDS011;59900;50.788;12.904;2023-04-16T11:52:47;10.40;;;5.55;;
72037;SDS011;59900;50.788;12.904;2023-04-16T11:55:12;10.05;;;6.20;;
72037;SDS011;59900;50.788;12.904;2023-04-16T11:57:38;10.13;;;5.53;;
72037;SDS011;59900;50.788;12.904;2023-04-16T12:00:03;10.93;;;5.93;;
72037;SDS011;59900;50.788;12.904;2023-04-16T12:02:50;10.77;;;5.23;;
72037;SDS011;59900;50.788;12.904;2023-04-16T12:05:30;10.10;;;5.20;;
72037;SDS011;59900;50.788;12.904;2023-04-16T12:07:58;10.27;;;5.97;;
72037;SDS011;59900;50.788;12.904;2023-04-16T12:10:24;9.00;;;5.10;;
72037;SDS011;59900;50.788;12.904;2023-04-16T12:12:51;10.93;;;5.60;;
72037;SDS011;59900;50.788;12.904;2023-04-16T12:15:16;9.33;;;5.37;;
72037;SDS011;59900;50.788;12.904;2023-04-16T12:18:05;9.43;;;4.80;;
72037;SDS011;59900;50.788;12.904;2023-04-16T12:20:44;8.85;;;5.20;;
72037;SDS011;59900;50.788;12.904;2023-04-16T12:23:21;10.02;;;5.65;;
72037;SDS011;59900;50.788;12.904;2023-04-16T12:25:50;9.93;;;5.37;;
72037;SDS011;59900;50.788;12.904;2023-04-16T12:28:29;10.90;;;5.65;;
72037;SDS011;59900;50.788;12.904;2023-04-16T12:30:56;10.30;;;5.60;;
72037;SDS011;59900;50.788;12.904;2023-04-16T12:33:21;9.90;;;5.17;;
72037;SDS011;59900;50.788;12.904;2023-04-16T12:35:46;8.97;;;4.97;;
72037;SDS011;59900;50.788;12.904;2023-04-16T12:38:12;9.00;;;5.30;;
72037;SDS011;59900;50.788;12.904;2023-04-16T12:40:39;9.30;;;5.35;;
72037;SDS011;59900;50.788;12.904;2023-04-16T12:43:05;9.70;;;5.22;;
72037;SDS011;59900;50.788;12.904;2023-04-16T12:45:30;10.90;;;5.50;;
72037;SDS011;59900;50.788;12.904;2023-04-16T12:47:56;9.13;;;5.43;;
72037;SDS011;59900;50.788;12.904;2023-04-16T12:50:21;9.13;;;4.97;;
72037;SDS011;59900;50.788;12.904;2023-04-16T12:52:47;8.77;;;5.37;;
72037;SDS011;59900;50.788;12.904;2023-04-16T12:55:12;8.93;;;5.23;;
72037;SDS011;59900;50.788;12.904;2023-04-16T12:57:38;9.30;;;5.13;;
72037;SDS011;59900;50.788;12.904;2023-04-16T13:00:04;10.00;;;5.20;;
72037;SDS011;59900;50.788;12.904;2023-04-16T13:02:30;10.15;;;6.00;;
72037;SDS011;59900;50.788;12.904;2023-04-16T13:04:56;8.73;;;4.93;;
72037;SDS011;59900;50.788;12.904;2023-04-16T13:07:22;9.00;;;5.40;;
72037;SDS011;59900;50.788;12.904;2023-04-16T13:09:48;9.93;;;5.28;;
72037;SDS011;59900;50.788;12.904;2023-04-16T13:12:13;10.53;;;5.03;;
72037;SDS011;59900;50.788;12.904;2023-04-16T13:14:38;9.03;;;5.17;;
72037;SDS011;59900;50.788;12.904;2023-04-16T13:17:03;9.23;;;5.20;;
72037;SDS011;59900;50.788;12.904;2023-04-16T13:19:29;9.77;;;5.10;;
72037;SDS011;59900;50.788;12.904;2023-04-16T13:21:55;11.20;;;6.20;;
72037;SDS011;59900;50.788;12.904;2023-04-16T13:24:21;10.82;;;5.30;;
72037;SDS011;59900;50.788;12.904;2023-04-16T13:26:47;9.83;;;5.70;;
72037;SDS011;59900;50.788;12.904;2023-04-16T13:29:13;12.57;;;5.65;;
72037;SDS011;59900;50.788;12.904;2023-04-16T13:31:38;10.03;;;5.60;;
72037;SDS011;59900;50.788;12.904;2023-04-16T13:34:03;9.77;;;5.57;;
72037;SDS011;59900;50.788;12.904;2023-04-16T13:36:29;11.47;;;6.07;;
72037;SDS011;59900;50.788;12.904;2023-04-16T13:38:56;9.75;;;5.50;;
72037;SDS011;59900;50.788;12.904;2023-04-16T13:41:24;10.57;;;5.43;;
72037;SDS011;59900;50.788;12.904;2023-04-16T13:43:49;10.83;;;6.43;;
72037;SDS011;59900;50.788;12.904;2023-04-16T13:46:15;10.80;;;5.60;;
72037;SDS011;59900;50.788;12.904;2023-04-16T13:48:40;11.40;;;6.87;;
72037;SDS011;59900;50.788;12.904;2023-04-16T13:51:05;10.53;;;6.30;;
72037;SDS011;59900;50.788;12.904;2023-04-16T13:53:32;11.05;;;5.55;;
72037;SDS011;59900;50.788;12.904;2023-04-16T13:55:57;12.30;;;6.17;;
72037;SDS011;59900;50.788;12.904;2023-04-16T13:58:22;11.53;;;6.50;;
72037;SDS011;59900;50.788;12.904;2023-04-16T14:00:48;10.80;;;5.87;;
72037;SDS011;59900;50.788;12.904;2023-04-16T14:03:13;9.87;;;5.17;;
72037;SDS011;59900;50.788;12.904;2023-04-16T14:05:39;10.57;;;5.93;;
72037;SDS011;59900;50.788;12.904;2023-04-16T14:08:05;10.33;;;5.60;;
72037;SDS011;59900;50.788;12.904;2023-04-16T14:10:30;9.37;;;4.87;;
72037;SDS011;59900;50.788;12.904;2023-04-16T14:12:56;8.95;;;4.78;;
72037;SDS011;59900;50.788;12.904;2023-04-16T14:15:21;8.30;;;4.33;;
72037;SDS011;59900;50.788;12.904;2023-04-16T14:17:47;9.23;;;4.55;;
72037;SDS011;59900;50.788;12.904;2023-04-16T14:20:12;9.37;;;4.70;;
72037;SDS011;59900;50.788;12.904;2023-04-16T14:22:38;6.87;;;3.83;;
72037;SDS011;59900;50.788;12.904;2023-04-16T14:25:04;9.30;;;4.70;;
72037;SDS011;59900;50.788;12.904;2023-04-16T14:27:30;7.53;;;4.43;;
72037;SDS011;59900;50.788;12.904;2023-04-16T14:29:55;9.82;;;5.53;;
72037;SDS011;59900;50.788;12.904;2023-04-16T14:32:21;8.00;;;4.10;;